createdAt,value
2019-02-21T00:07:38.149Z,5.64
2019-02-21T00:12:42.305Z,5.32
2019-02-21T00:17:46.414Z,5.07
2019-02-21T00:22:50.404Z,4.89
2019-02-21T00:28:01.602Z,4.81
2019-02-21T00:33:05.602Z,4.90
2019-02-21T00:38:10.099Z,5.09
2019-02-21T00:43:14.197Z,5.20
2019-02-21T00:48:18.239Z,5.30
2019-02-21T00:53:22.298Z,5.35
2019-02-21T00:58:26.401Z,5.36
2019-02-21T01:03:30.482Z,5.43
2019-02-21T01:08:34.560Z,5.34
2019-02-21T01:24:09.464Z,5.41
2019-02-21T01:29:14.081Z,5.43
2019-02-21T01:34:18.267Z,5.40
2019-02-21T01:39:22.303Z,5.39
2019-02-21T01:44:26.454Z,5.71
2019-02-21T01:49:31.388Z,5.66
2019-02-21T01:54:35.435Z,5.56
2019-02-21T01:59:39.520Z,5.68
2019-02-21T02:04:43.568Z,5.65
2019-02-21T02:09:58.940Z,5.68
2019-02-21T02:15:03.104Z,5.78
2019-02-21T02:20:07.289Z,5.79
2019-02-21T02:25:11.388Z,5.74
2019-02-21T02:30:15.786Z,5.76
2019-02-21T02:35:19.901Z,5.77
2019-02-21T02:40:24.190Z,5.79
2019-02-21T02:45:28.351Z,5.80
2019-02-21T02:50:43.611Z,5.91
2019-02-21T02:55:47.687Z,6.03
2019-02-21T03:01:05.987Z,5.85
2019-02-21T03:06:06.860Z,5.84
2019-02-21T03:11:10.955Z,5.84
2019-02-21T03:16:15.036Z,5.91
2019-02-21T03:21:19.104Z,5.92
2019-02-21T03:26:23.570Z,5.88
2019-02-21T03:31:27.671Z,5.89
2019-02-21T03:36:31.746Z,5.85
2019-02-21T03:41:41.690Z,5.88
2019-02-21T03:46:45.827Z,5.89
2019-02-21T03:51:49.928Z,5.97
2019-02-21T03:56:53.984Z,6.00
2019-02-21T04:02:05.139Z,6.09
2019-02-21T04:07:10.179Z,6.12
2019-02-21T04:12:14.735Z,6.14
2019-02-21T04:17:18.890Z,6.17
2019-02-21T04:22:23.069Z,6.14
2019-02-21T04:27:27.136Z,6.11
2019-02-21T04:32:31.357Z,6.05
2019-02-21T04:37:35.385Z,6.20
2019-02-21T04:42:39.928Z,6.18
2019-02-21T04:47:44.232Z,6.22
2019-02-21T04:52:59.652Z,6.34
2019-02-21T04:58:03.812Z,6.45
2019-02-21T05:03:08.026Z,6.55
2019-02-21T05:08:12.505Z,6.62
2019-02-21T05:13:17.660Z,6.66
2019-02-21T05:18:25.103Z,6.69
2019-02-21T05:23:30.125Z,6.64
2019-02-21T05:28:34.301Z,6.80
2019-02-21T05:33:38.495Z,6.67
2019-02-21T05:38:44.170Z,6.70
2019-02-21T05:43:48.429Z,6.48
2019-02-21T05:48:52.647Z,6.44
2019-02-21T05:53:56.858Z,6.38
2019-02-21T05:59:00.965Z,6.27
2019-02-21T06:04:05.121Z,6.27
2019-02-21T06:09:09.282Z,6.20
2019-02-21T06:14:13.341Z,6.26
2019-02-21T06:19:17.515Z,6.18
2019-02-21T06:24:22.536Z,6.17
2019-02-21T06:29:26.692Z,6.23
2019-02-21T06:34:31.734Z,6.21
2019-02-21T06:39:36.953Z,6.23
2019-02-21T06:44:41.185Z,6.26
2019-02-21T06:49:45.430Z,6.35
2019-02-21T06:54:49.552Z,6.37
2019-02-21T06:59:53.758Z,6.52
2019-02-21T07:04:58.245Z,6.70
2019-02-21T07:10:03.668Z,6.85
2019-02-21T07:15:09.440Z,6.92
2019-02-21T07:20:14.094Z,6.95
2019-02-21T07:25:18.439Z,7.08
2019-02-21T07:30:23.220Z,7.13
2019-02-21T07:35:27.461Z,7.09
2019-02-21T07:40:31.987Z,7.24
2019-02-21T07:45:36.569Z,7.35
2019-02-21T07:50:41.020Z,7.46
2019-02-21T07:55:45.306Z,7.45
2019-02-21T08:00:49.388Z,7.22
2019-02-21T08:05:53.487Z,7.16
2019-02-21T08:10:57.556Z,7.15
2019-02-21T08:16:01.804Z,7.30
2019-02-21T08:21:05.899Z,7.51
2019-02-21T08:26:10.054Z,7.54
2019-02-21T08:31:14.079Z,7.64
2019-02-21T08:36:18.238Z,7.64
2019-02-21T08:41:22.317Z,7.61
2019-02-21T08:46:26.383Z,7.59
2019-02-21T08:51:30.505Z,7.62
2019-02-21T08:56:34.730Z,7.64
2019-02-21T09:01:38.827Z,7.73
2019-02-21T09:06:42.865Z,7.81
2019-02-21T09:11:46.957Z,7.92
2019-02-21T09:16:51.768Z,8.08
2019-02-21T09:21:55.858Z,8.18
2019-02-21T09:27:02.113Z,7.99
2019-02-21T09:32:07.035Z,8.07
2019-02-21T09:37:11.622Z,8.35
2019-02-21T09:42:15.769Z,8.62
2019-02-21T09:47:20.008Z,8.93
2019-02-21T09:52:24.234Z,9.21
2019-02-21T09:57:28.606Z,9.40
2019-02-21T10:02:32.695Z,9.58
2019-02-21T10:07:37.327Z,9.92
2019-02-21T10:12:41.817Z,9.92
2019-02-21T10:17:50.806Z,10.00
2019-02-21T10:22:54.706Z,9.59
2019-02-21T10:27:59.259Z,9.59
2019-02-21T10:33:03.577Z,10.27
2019-02-21T10:38:07.667Z,10.88
2019-02-21T10:43:11.835Z,10.60
2019-02-21T10:48:16.020Z,10.60
2019-02-21T10:53:20.488Z,10.84
2019-02-21T10:58:24.671Z,11.28
2019-02-21T11:03:28.771Z,11.74
2019-02-21T11:08:32.880Z,11.81
2019-02-21T11:13:36.913Z,12.31
2019-02-21T11:18:41.311Z,13.49
2019-02-21T11:23:45.367Z,13.65
2019-02-21T11:28:49.423Z,12.53
2019-02-21T11:33:53.503Z,12.26
2019-02-21T11:38:57.602Z,12.44
2019-02-21T11:44:01.643Z,12.55
2019-02-21T11:49:05.784Z,12.53
2019-02-21T11:54:09.864Z,12.22
2019-02-21T11:59:16.034Z,12.50
2019-02-21T12:04:25.094Z,12.38
2019-02-21T12:09:29.113Z,12.56
2019-02-21T12:14:33.180Z,12.41
2019-02-21T12:19:37.243Z,12.96
2019-02-21T12:24:41.310Z,12.81
2019-02-21T12:29:45.426Z,12.73
2019-02-21T12:40:16.717Z,12.33
2019-02-21T12:45:40.039Z,11.80
2019-02-21T12:50:44.727Z,12.62
2019-02-21T12:55:55.634Z,12.79
2019-02-21T13:00:59.688Z,12.53
2019-02-21T13:11:22.837Z,11.73
2019-02-21T13:16:26.896Z,11.63
2019-02-21T13:21:50.496Z,11.37
2019-02-21T13:26:54.561Z,11.38
2019-02-21T13:31:58.717Z,11.46
2019-02-21T13:37:28.665Z,11.30
2019-02-21T13:42:51.922Z,11.50
2019-02-21T13:47:56.456Z,11.60
2019-02-21T13:53:00.556Z,11.61
2019-02-21T13:58:24.679Z,11.72
2019-02-21T14:03:28.819Z,11.68
2019-02-21T14:08:34.764Z,11.80
2019-02-21T14:13:39.366Z,11.78
2019-02-21T14:18:43.477Z,11.71
2019-02-21T14:23:47.532Z,11.60
2019-02-21T14:28:51.942Z,11.19
2019-02-21T14:33:56.057Z,11.03
2019-02-21T14:39:00.181Z,10.97
2019-02-21T14:49:20.254Z,10.91
2019-02-21T14:54:24.655Z,10.66
2019-02-21T14:59:29.013Z,10.62
2019-02-21T15:10:34.325Z,10.27
2019-02-21T15:15:38.461Z,10.23
2019-02-21T15:20:43.557Z,10.13
2019-02-21T15:25:53.715Z,9.98
2019-02-21T15:31:16.881Z,9.90
2019-02-21T15:36:39.985Z,9.97
2019-02-21T15:47:20.694Z,9.89
2019-02-21T15:52:25.636Z,9.72
2019-02-21T15:57:29.691Z,9.61
2019-02-21T16:02:33.768Z,9.60
2019-02-21T16:07:38.630Z,9.58
2019-02-21T16:12:43.388Z,9.52
2019-02-21T16:17:54.981Z,9.40
2019-02-21T16:22:59.083Z,9.35
2019-02-21T16:28:03.304Z,9.32
2019-02-21T16:33:07.409Z,9.37
2019-02-21T16:38:11.494Z,9.30
2019-02-21T16:43:15.690Z,9.19
2019-02-21T16:48:19.863Z,9.13
2019-02-21T16:53:23.948Z,9.12
2019-02-21T16:58:28.522Z,9.03
2019-02-21T17:03:32.638Z,9.07
2019-02-21T17:08:36.821Z,9.07
2019-02-21T17:13:40.937Z,9.05
2019-02-21T17:18:45.118Z,9.13
2019-02-21T17:23:49.251Z,9.18
2019-02-21T17:28:53.304Z,9.25
2019-02-21T17:33:59.388Z,9.22
2019-02-21T17:39:05.914Z,9.32
2019-02-21T17:44:14.917Z,9.30
2019-02-21T17:49:20.441Z,9.36
2019-02-21T17:54:27.627Z,9.40
2019-02-21T17:59:33.438Z,9.47
2019-02-21T18:04:38.852Z,9.58
2019-02-21T18:09:44.004Z,9.63
2019-02-21T18:14:48.393Z,9.48
2019-02-21T18:19:52.517Z,9.24
2019-02-21T18:24:58.918Z,9.02
2019-02-21T18:30:03.593Z,8.88
2019-02-21T18:35:08.204Z,8.75
2019-02-21T18:40:17.356Z,8.76
2019-02-21T18:45:19.638Z,8.67
2019-02-21T18:50:23.707Z,8.65
2019-02-21T18:55:28.051Z,8.63
2019-02-21T19:00:32.124Z,8.70
2019-02-21T19:05:54.185Z,8.66
2019-02-21T19:10:58.747Z,8.71
2019-02-21T19:16:03.210Z,8.60
2019-02-21T19:21:07.985Z,8.65
2019-02-21T19:26:12.253Z,8.60
2019-02-21T19:31:18.899Z,8.58
2019-02-21T19:36:23.012Z,8.56
2019-02-21T19:41:28.251Z,8.60
2019-02-21T19:46:35.586Z,8.56
2019-02-21T19:51:41.499Z,8.52
2019-02-21T19:56:47.496Z,8.51
2019-02-21T20:01:53.827Z,8.54
2019-02-21T20:07:01.111Z,8.50
2019-02-21T20:12:07.028Z,8.51
2019-02-21T20:17:13.124Z,8.44
2019-02-21T20:22:22.104Z,8.49
2019-02-21T20:27:27.196Z,8.50
2019-02-21T20:32:33.616Z,8.51
2019-02-21T20:37:42.201Z,8.52
2019-02-21T20:42:48.479Z,8.51
2019-02-21T20:47:55.068Z,8.57
2019-02-21T20:53:18.397Z,8.56
2019-02-21T20:58:23.126Z,8.54
2019-02-21T21:03:28.443Z,8.51
2019-02-21T21:08:42.717Z,8.55
2019-02-21T21:13:39.586Z,8.52
2019-02-21T21:18:44.351Z,8.55
2019-02-21T21:23:49.108Z,8.58
2019-02-21T21:28:53.856Z,8.58
2019-02-21T21:34:00.538Z,8.61
2019-02-21T21:39:06.649Z,8.62
2019-02-21T21:44:10.800Z,8.65
2019-02-21T21:49:15.980Z,8.65
2019-02-21T21:54:20.126Z,8.72
2019-02-21T21:59:24.276Z,8.69
2019-02-21T22:04:28.560Z,8.70
2019-02-21T22:09:32.798Z,8.67
2019-02-21T22:14:55.914Z,8.74
2019-02-21T22:20:07.272Z,8.79
2019-02-21T22:30:46.748Z,8.83
2019-02-21T22:35:51.479Z,8.78
2019-02-21T22:41:01.883Z,8.77
2019-02-21T22:46:07.708Z,8.78
2019-02-21T22:51:11.807Z,8.72
2019-02-21T22:56:15.992Z,8.66
2019-02-21T23:07:36.697Z,8.68
2019-02-21T23:12:40.810Z,8.63
2019-02-21T23:18:05.775Z,8.63
2019-02-21T23:23:09.907Z,8.59
2019-02-21T23:33:29.440Z,8.60
2019-02-21T23:38:33.559Z,8.63
2019-02-21T23:43:37.631Z,8.59
2019-02-21T23:48:41.677Z,8.57
2019-02-21T23:53:46.075Z,8.59
